< < Back
Terminal Aerodrome Forecast


Current Version              Previous Versions:   1  2  3  4  5  6  7  8  9  

Terminal Aerodrome Forecast

911
FTUS42 KCHS 282227 AAB
TAFSAV
TAF AMD
KSAV 282227Z 2822/2918 VRB03KT P6SM VCTS SCT040CB BKN080
     FM290200 VRB04KT P6SM VCSH SCT025 BKN070
     FM291300 29004KT P6SM SCT035 BKN060=

Latest METAR

784
SAUS80 KWBC 290000 RRB
MTRSAV
METAR KSAV 282353Z 27008KT 3SM +RA BR BKN060 BKN080 OVC110 26/23 A2991
RMK AO2 RAB36 SLP128 P0004 60004 T02560233 10328 20256
53005


USA.gov is the U.S. government's official web portal to all federal, state and local government web resources and services.